Flight Track Log - Related Links

Times and Time Zones

All times are in EDT time to prevent confusion due to time zone crossing. See the SWA1729 flight status page for this flight to view local times or setup timezone preferences in your user account.

Time Position Orientation Groundspeed Altitude Reporting Facility
EDT Latitude Longitude Course Direction KTS MPH feet Rate Location/Type
Tue 10:44:23 PM 29.6183 -95.3081 227° Southwest 174 200 1,800  Level Houston Center
Tue 10:45:18 PM 29.5881 -95.3369 220° Southwest 208 239 3,600 2,348 Climbing Houston Center
Tue 10:46:18 PM 29.5339 -95.4081 229° Southwest 256 295 6,300 3,328 Climbing Houston Center
Tue 10:47:26 PM 29.5708 -95.5011 295° West 284 327 10,700 3,000 Climbing Houston Center
Tue 10:48:20 PM 29.6131 -95.5808 301° West 311 358 12,400 2,557 Climbing Houston Center
Tue 10:49:21 PM 29.6597 -95.6789 299° West 341 392 15,600 2,656 Climbing Houston Center
Tue 10:50:22 PM 29.6844 -95.7889 285° West 355 409 17,800 2,410 Climbing Houston Center
Tue 10:51:23 PM 29.7111 -95.9044 285° West 371 427 20,500 2,607 Climbing Houston Center
Tue 10:52:24 PM 29.7394 -96.0178 286° West 375 432 23,100 2,066 Climbing Houston Center
Tue 10:53:25 PM 29.7681 -96.1375 285° West 386 444 24,700 1,721 Climbing Houston Center
Tue 10:54:26 PM 29.7981 -96.2633 285° West 405 466 26,600 1,721 Climbing Houston Center
Tue 10:55:27 PM 29.8286 -96.3900 286° West 412 474 28,200 1,636 Climbing Houston Center
Tue 10:56:27 PM 29.8597 -96.5214 285° West 425 489 29,900 2,083 Climbing Houston Center
Tue 10:57:28 PM 29.8964 -96.6772 285° West 424 488 32,400 2,115 Climbing Houston Center
Tue 10:58:29 PM 29.9242 -96.8019 284° West 411 473 34,200 1,574 Climbing Houston Center
Tue 10:59:30 PM 29.9533 -96.9244 285° West 401 461 35,600 885 Climbing Houston Center
Tue 11:00:31 PM 29.9825 -97.0517 285° West 409 471 36,000 197 Climbing Houston Center
Tue 11:01:32 PM 30.0114 -97.1772 285° West 408 470 36,000  Level Houston Center
Tue 11:02:33 PM 30.0400 -97.3028 285° West 407 468 36,000  Level Houston Center
Tue 11:03:33 PM 30.0683 -97.4300 284° West 410 472 36,000  Level Houston Center
Tue 11:04:34 PM 30.1006 -97.5711 285° West 407 468 36,000  Level Houston Center
Tue 11:05:35 PM 30.1292 -97.6992 285° West 406 467 36,000  Level Houston Center
Tue 11:06:36 PM 30.1586 -97.8261 285° West 406 467 36,000  Level Houston Center
Tue 11:07:37 PM 30.1872 -97.9575 284° West 404 465 36,000  Level Houston Center
Tue 11:08:38 PM 30.2147 -98.0847 284° West 409 471 36,000  Level Houston Center
Tue 11:09:39 PM 30.2433 -98.2103 285° West 407 468 36,000  Level Houston Center
Tue 11:10:40 PM 30.2714 -98.3358 285° West 405 466 36,000  Level Houston Center
Tue 11:11:40 PM 30.3003 -98.4731 284° West 408 470 36,000  Level Houston Center
Tue 11:12:41 PM 30.3272 -98.5922 285° West 401 461 36,000  Level Houston Center
Tue 11:13:42 PM 30.3536 -98.7189 284° West 400 460 36,000  Level Houston Center
Tue 11:14:43 PM 30.3819 -98.8450 285° West 401 461 36,000  Level Houston Center
Tue 11:15:44 PM 30.4094 -98.9717 284° West 402 463 36,000  Level Houston Center
Tue 11:16:45 PM 30.4364 -99.0969 284° West 398 458 36,000  Level Houston Center
Tue 11:17:46 PM 30.4603 -99.2047 284° West 397 457 36,000  Level Houston Center
Tue 11:18:46 PM 30.4864 -99.3286 284° West 397 457 36,000  Level Houston Center
Tue 11:19:47 PM 30.5156 -99.4739 283° West 389 448 36,000  Level Houston Center
Tue 11:20:48 PM 30.5422 -99.5953 284° West 389 448 36,000  Level Houston Center
Tue 11:21:49 PM 30.5675 -99.7169 284° West 391 450 36,000  Level Houston Center
Tue 11:22:50 PM 30.5925 -99.8378 284° West 389 448 36,000  Level Houston Center
Tue 11:23:51 PM 30.6172 -99.9564 284° West 383 441 36,000  Level Houston Center
Tue 11:24:51 PM 30.6417 -100.0786 283° West 389 448 36,000  Level Houston Center
Tue 11:25:52 PM 30.6647 -100.1986 283° West 389 448 36,000  Level Houston Center
Tue 11:26:53 PM 30.6897 -100.3194 284° West 390 449 36,000  Level Houston Center
Tue 11:27:54 PM 30.7139 -100.4422 283° West 402 463 36,000  Level Houston Center
Tue 11:28:54 PM 30.7386 -100.5650 283° West 400 460 36,000  Level Houston Center
Tue 11:29:55 PM 30.7628 -100.6881 283° West 398 458 36,000  Level Houston Center
Tue 11:30:56 PM 30.7931 -100.8342 284° West 392 451 36,000  Level Houston Center
Tue 11:31:57 PM 30.8158 -100.9567 282° West 390 449 36,000  Level Houston Center
Tue 11:32:58 PM 30.8411 -101.0786 284° West 391 450 36,000  Level Houston Center
Tue 11:33:58 PM 30.8653 -101.1950 284° West 377 434 36,000  Level Houston Center
Tue 11:34:59 PM 30.8875 -101.3117 283° West 373 429 36,000  Level Houston Center
Tue 11:36:00 PM 30.9103 -101.4292 283° West 374 430 36,000  Level Houston Center
Tue 11:37:05 PM 30.9319 -101.5522 282° West 373 429 36,000  Level Albuquerque Center
Tue 11:38:06 PM 30.9556 -101.6686 283° West 370 426 36,000  Level Albuquerque Center
Tue 11:39:07 PM 30.9778 -101.7858 282° West 370 426 36,000  Level Albuquerque Center
Tue 11:40:09 PM 31.0000 -101.9025 283° West 369 425 36,000  Level Albuquerque Center
Tue 11:41:10 PM 31.0225 -102.0350 281° West 385 443 36,000  Level Albuquerque Center
Tue 11:42:11 PM 31.0456 -102.1525 283° West 378 435 36,000  Level Albuquerque Center
Tue 11:43:12 PM 31.0672 -102.2717 282° West 376 433 36,000  Level Albuquerque Center
Tue 11:44:14 PM 31.0906 -102.3900 283° West 375 432 36,000  Level Albuquerque Center
Tue 11:45:15 PM 31.1117 -102.5086 282° West 374 430 36,000  Level Albuquerque Center
Tue 11:46:16 PM 31.1367 -102.6464 282° West 367 422 36,000  Level Albuquerque Center
Tue 11:47:17 PM 31.1583 -102.7669 282° West 374 430 36,000  Level Albuquerque Center
Tue 11:48:19 PM 31.1797 -102.8858 282° West 375 432 36,000  Level Albuquerque Center
Tue 11:49:20 PM 31.2017 -103.0042 282° West 374 430 36,000  Level Albuquerque Center
Tue 11:50:21 PM 31.2231 -103.1233 282° West 375 432 36,000  Level Albuquerque Center
Tue 11:51:22 PM 31.2422 -103.2422 281° West 373 429 36,000  Level Albuquerque Center
Tue 11:52:23 PM 31.2647 -103.3592 283° West 371 427 36,000  Level Albuquerque Center
Tue 11:53:24 PM 31.2844 -103.4756 281° West 366 421 36,000 -49 Level Albuquerque Center
Tue 11:54:26 PM 31.3047 -103.5919 282° West 365 420 35,900  Descending Albuquerque Center
Tue 11:55:27 PM 31.3294 -103.7308 282° West 364 419 36,000 49 Climbing Albuquerque Center
Tue 11:56:28 PM 31.3453 -103.8258 281° West 365 420 36,000  Level Albuquerque Center
Tue 11:57:29 PM 31.3706 -103.9658 282° West 367 422 36,000  Level Albuquerque Center
Tue 11:58:30 PM 31.3908 -104.0847 281° West 371 427 36,000  Level Albuquerque Center
Tue 11:59:31 PM 31.4131 -104.2042 282° West 374 430 36,000  Level Albuquerque Center
Wed 12:00:32 AM 31.4331 -104.3206 281° West 372 428 36,000  Level Albuquerque Center
Wed 12:01:33 AM 31.4519 -104.4364 281° West 369 425 36,000  Level Albuquerque Center
Wed 12:02:34 AM 31.4650 -104.5531 278° West 366 421 36,000 -443 Level Albuquerque Center
Wed 12:03:35 AM 31.4764 -104.6697 277° West 365 420 35,100 -1,967 Descending Albuquerque Center
Wed 12:04:36 AM 31.4881 -104.7878 277° West 365 420 32,000 -2,656 Descending Albuquerque Center
Wed 12:05:37 AM 31.5003 -104.9067 277° West 369 425 29,700 -2,361 Descending Albuquerque Center
Wed 12:06:38 AM 31.5133 -105.0414 277° West 356 410 27,200 -2,361 Descending Albuquerque Center
Wed 12:07:39 AM 31.5247 -105.1519 277° West 349 402 24,900 -2,164 Descending Albuquerque Center
Wed 12:08:40 AM 31.5358 -105.2603 277° West 342 394 22,800 -2,093 Descending Albuquerque Center
Wed 12:09:05 AM 31.5397 -105.3128 275° West 332 382 21,900 -1,967 Descending Albuquerque Center
Wed 12:09:41 AM 31.5464 -105.3658 278° West 333 383 20,800 -1,846 Descending Albuquerque Center
Wed 12:10:36 AM 31.5531 -105.4617 275° West 310 357 19,100 -2,172 Descending Albuquerque Center
Wed 12:11:37 AM 31.6014 -105.5592 300° West 328 377 16,600 -2,508 Descending Albuquerque Center
Wed 12:12:38 AM 31.6508 -105.6514 302° West 337 388 14,000 -2,331 Descending Albuquerque Center
Wed 12:13:38 AM 31.6944 -105.7478 298° West 331 381 11,900 -1,835 Descending Albuquerque Center
Wed 12:14:39 AM 31.7164 -105.8419 285° West 296 341 10,300 -1,488 Descending Albuquerque Center
Wed 12:15:39 AM 31.7308 -105.9308 281° West 270 311 8,900 -1,140 Descending Albuquerque Center
Wed 12:16:40 AM 31.7469 -106.0192 282° West 268 308 8,000 -934 Descending Albuquerque Center
Wed 12:17:41 AM 31.7619 -106.1006 282° West 260 299 7,000 -843 Descending Albuquerque Center
Wed 12:18:41 AM 31.7764 -106.1794 282° West 245 282 6,300 -730 Descending Albuquerque Center
Wed 12:19:36 AM 31.7878 -106.2414 282° West 211 243 5,600 -626 Descending Albuquerque Center
Wed 12:20:36 AM 31.7975 -106.2942 282° West 145 167 5,100 -560 Descending Albuquerque Center
Wed 12:20:51 AM 31.7975 -106.3028 270° West 140 161 4,900 -590 Descending Albuquerque Center
Wed 12:21:37 AM 31.7978 -106.3314 271° West 98 113 4,500 -590 Descending Albuquerque Center
Wed 12:21:52 AM 31.8003 -106.3433 284° West 116 133 4,300 -400 Descending Albuquerque Center
Wed 12:22:52 AM 31.8022 -106.3744 274° West 117 135 4,000 -300 Descending Albuquerque Center
Wed 12:24:00 AM 31.8000 -106.3667 North  Level FlightAware Approximate
Wed 12:31:00 AM 31.8072 -106.3764 North  Level Estimated
Wed 12:32:00 AM 31.8072 -106.3764 North  Level Estimated
Wed 12:33:00 AM 31.8072 -106.3764 North  Level Estimated
Wed 12:34:00 AM 31.8072 -106.3764 North  Level Estimated

Login

Don't have an account? Register now (free) for customized features, flight alerts, and more!